Airfield :
LOGIN :

Register | Disclaimer

   EN    FR    IT 

 










Legend :    VFR   Marginal VFR   IFR   Intensive IFR   Very Intensive IFR
Visi :
Ceiling :
>= 8 km
>= 3000ft
5 to 8 km
1000 to 3000 ft
1500m to 5 km
500 to 1000 ft
800 to 1500m
200 to 500 ft
< 800m
< 200 ft
Symbols :   Thunderstorms  Fog  Heavy snow  Heavy precipitations  Wind > 20 kt
SIGMETs :     Misc.  Thunderstorms  Icing  Turbulence  Mountain Waves  Volcanic Ashes






- Airport Elevation : 844 ft
- IATA code : OSR


LKMT - Ostrava-Mosnov

CURRENT METAR :
  • 260000Z 27006KT 210V300 9999 RA FEW040 18/18 Q1011 NOSIG

EXPIRED METARs :
  • 252330Z 15007KT 9999 SHRA BKN012CB 19/18 Q1011 NOSIG
  • 252300Z 12008KT 090V150 5000 TSRA BKN012CB 19/18 Q1011 NOSIG
  • 252230Z 13010KT 100V160 5000 TSRA BKN012CB 18/18 Q1012 NOSIG
  • 252200Z 24009G19KT 220V280 5000 TSRA BKN021CB 18/18 Q1013 NOSIG
  • 252143Z 23017KT 9999 -TSRA FEW021CB 19/18 Q1013 RMK REG QNH 1009
  • 252130Z VRB02KT 9999 -TSRA FEW030CB 19/18 Q1011 NOSIG

TAF TAF LKMT
Valid from the 26 at 00:00 until the 27 at 06:00 UTC


252300Z 2600/2706 23006KT CAVOK
TEMPO 2600/2606 VRB02KT 4000 BR SCT003
PROB30
TEMPO 2602/2606 2000 BR BKN003
TEMPO 2615/2622 7000 SHRA SCT040TCU
PROB30
TEMPO 2616/2622 24020G30KT 4000 TSRA SCT030CB
TEMPO 2700/2706 4000 BR SCT002
PROB30
TEMPO 2700/2704 2000 BR BKN002



MET'MAP, your aeronautical weather chart ! - Copyright ORBIFLY December 2007 - Disclaimer

ORBIFLY MET'MAP TEAM :

Programming & Development : Alexandra Zaïnal
Concept & original design : Baudouin d'Aumeries
Assistance for programming : Marc-Olivier Méhu
Technical & hardware support : Manuel Goepfert

Contact : metmap@orbifly.com




SOURCES & CREDITS :

   NOAA